sensor_id;sensor_type;location;lat;lon;timestamp;P1;durP1;ratioP1;P2;durP2;ratioP2
38843;SDS011;24596;48.080;8.362;2024-01-16T00:02:02;8.88;;;3.90;;
38843;SDS011;24596;48.080;8.362;2024-01-16T00:04:28;9.20;;;3.70;;
38843;SDS011;24596;48.080;8.362;2024-01-16T00:06:55;10.35;;;3.97;;
38843;SDS011;24596;48.080;8.362;2024-01-16T00:09:20;10.70;;;3.92;;
38843;SDS011;24596;48.080;8.362;2024-01-16T00:11:45;10.80;;;4.20;;
38843;SDS011;24596;48.080;8.362;2024-01-16T00:14:10;9.82;;;3.92;;
38843;SDS011;24596;48.080;8.362;2024-01-16T00:16:42;9.77;;;3.40;;
38843;SDS011;24596;48.080;8.362;2024-01-16T00:19:09;8.00;;;3.45;;
38843;SDS011;24596;48.080;8.362;2024-01-16T00:21:38;11.68;;;3.72;;
38843;SDS011;24596;48.080;8.362;2024-01-16T00:24:03;10.98;;;3.88;;
38843;SDS011;24596;48.080;8.362;2024-01-16T00:26:28;8.70;;;3.47;;
38843;SDS011;24596;48.080;8.362;2024-01-16T00:28:53;8.80;;;3.63;;
38843;SDS011;24596;48.080;8.362;2024-01-16T00:31:19;6.53;;;2.83;;
38843;SDS011;24596;48.080;8.362;2024-01-16T00:33:44;7.65;;;3.20;;
38843;SDS011;24596;48.080;8.362;2024-01-16T00:36:09;10.48;;;3.45;;
38843;SDS011;24596;48.080;8.362;2024-01-16T00:38:34;9.23;;;3.55;;
38843;SDS011;24596;48.080;8.362;2024-01-16T00:41:00;7.93;;;3.33;;
38843;SDS011;24596;48.080;8.362;2024-01-16T00:43:25;8.75;;;3.70;;
38843;SDS011;24596;48.080;8.362;2024-01-16T00:45:51;12.23;;;3.83;;
38843;SDS011;24596;48.080;8.362;2024-01-16T00:48:16;8.95;;;3.55;;
38843;SDS011;24596;48.080;8.362;2024-01-16T00:50:41;12.82;;;3.45;;
38843;SDS011;24596;48.080;8.362;2024-01-16T00:53:06;9.93;;;3.35;;
38843;SDS011;24596;48.080;8.362;2024-01-16T00:55:31;9.57;;;3.50;;
38843;SDS011;24596;48.080;8.362;2024-01-16T00:57:57;8.05;;;3.17;;
38843;SDS011;24596;48.080;8.362;2024-01-16T01:00:22;9.10;;;3.40;;
38843;SDS011;24596;48.080;8.362;2024-01-16T01:02:47;8.30;;;3.30;;
38843;SDS011;24596;48.080;8.362;2024-01-16T01:05:12;8.73;;;3.30;;
38843;SDS011;24596;48.080;8.362;2024-01-16T01:07:38;7.75;;;2.97;;
38843;SDS011;24596;48.080;8.362;2024-01-16T01:10:03;8.90;;;3.47;;
38843;SDS011;24596;48.080;8.362;2024-01-16T01:12:28;10.18;;;3.25;;
38843;SDS011;24596;48.080;8.362;2024-01-16T01:14:54;8.80;;;3.10;;
38843;SDS011;24596;48.080;8.362;2024-01-16T01:17:19;8.23;;;3.25;;
38843;SDS011;24596;48.080;8.362;2024-01-16T01:19:44;7.57;;;3.58;;
38843;SDS011;24596;48.080;8.362;2024-01-16T01:22:11;8.75;;;3.17;;
38843;SDS011;24596;48.080;8.362;2024-01-16T01:24:36;11.02;;;3.38;;
38843;SDS011;24596;48.080;8.362;2024-01-16T01:27:01;8.82;;;3.30;;
38843;SDS011;24596;48.080;8.362;2024-01-16T01:29:27;8.02;;;3.33;;
38843;SDS011;24596;48.080;8.362;2024-01-16T01:31:52;7.53;;;3.10;;
38843;SDS011;24596;48.080;8.362;2024-01-16T01:34:17;10.38;;;3.35;;
38843;SDS011;24596;48.080;8.362;2024-01-16T01:36:45;7.70;;;2.97;;
38843;SDS011;24596;48.080;8.362;2024-01-16T01:39:10;8.98;;;3.83;;
38843;SDS011;24596;48.080;8.362;2024-01-16T01:41:36;8.43;;;2.90;;
38843;SDS011;24596;48.080;8.362;2024-01-16T01:44:01;8.97;;;3.37;;
38843;SDS011;24596;48.080;8.362;2024-01-16T01:46:27;9.38;;;3.28;;
38843;SDS011;24596;48.080;8.362;2024-01-16T01:48:52;10.55;;;3.33;;
38843;SDS011;24596;48.080;8.362;2024-01-16T01:51:18;10.27;;;3.45;;
38843;SDS011;24596;48.080;8.362;2024-01-16T01:53:44;7.30;;;2.85;;
38843;SDS011;24596;48.080;8.362;2024-01-16T01:56:17;9.05;;;3.28;;
38843;SDS011;24596;48.080;8.362;2024-01-16T01:58:43;9.90;;;3.25;;
38843;SDS011;24596;48.080;8.362;2024-01-16T02:01:09;6.82;;;2.75;;
38843;SDS011;24596;48.080;8.362;2024-01-16T02:03:35;7.38;;;3.03;;
38843;SDS011;24596;48.080;8.362;2024-01-16T02:06:04;9.00;;;3.00;;
38843;SDS011;24596;48.080;8.362;2024-01-16T02:08:29;7.43;;;3.33;;
38843;SDS011;24596;48.080;8.362;2024-01-16T02:10:55;7.03;;;2.97;;
38843;SDS011;24596;48.080;8.362;2024-01-16T02:13:20;7.53;;;2.83;;
38843;SDS011;24596;48.080;8.362;2024-01-16T02:15:48;8.13;;;3.03;;
38843;SDS011;24596;48.080;8.362;2024-01-16T02:18:13;9.00;;;3.55;;
38843;SDS011;24596;48.080;8.362;2024-01-16T02:20:38;6.25;;;3.08;;
38843;SDS011;24596;48.080;8.362;2024-01-16T02:23:04;9.75;;;3.28;;
38843;SDS011;24596;48.080;8.362;2024-01-16T02:25:31;10.50;;;2.97;;
38843;SDS011;24596;48.080;8.362;2024-01-16T02:27:56;8.48;;;3.20;;
38843;SDS011;24596;48.080;8.362;2024-01-16T02:30:22;7.38;;;3.05;;
38843;SDS011;24596;48.080;8.362;2024-01-16T02:32:47;9.63;;;3.30;;
38843;SDS011;24596;48.080;8.362;2024-01-16T02:35:12;11.88;;;3.30;;
38843;SDS011;24596;48.080;8.362;2024-01-16T02:37:38;8.70;;;3.20;;
38843;SDS011;24596;48.080;8.362;2024-01-16T02:40:03;9.13;;;3.28;;
38843;SDS011;24596;48.080;8.362;2024-01-16T02:42:31;8.10;;;3.17;;
38843;SDS011;24596;48.080;8.362;2024-01-16T02:44:56;8.68;;;3.17;;
38843;SDS011;24596;48.080;8.362;2024-01-16T02:47:21;10.67;;;3.40;;
38843;SDS011;24596;48.080;8.362;2024-01-16T02:49:47;10.37;;;3.23;;
38843;SDS011;24596;48.080;8.362;2024-01-16T02:52:12;7.10;;;3.10;;
38843;SDS011;24596;48.080;8.362;2024-01-16T02:54:38;8.97;;;3.30;;
38843;SDS011;24596;48.080;8.362;2024-01-16T02:57:03;7.45;;;3.17;;
38843;SDS011;24596;48.080;8.362;2024-01-16T02:59:28;7.13;;;2.80;;
38843;SDS011;24596;48.080;8.362;2024-01-16T03:01:55;8.07;;;3.17;;
38843;SDS011;24596;48.080;8.362;2024-01-16T03:04:20;11.13;;;4.50;;
38843;SDS011;24596;48.080;8.362;2024-01-16T03:06:46;9.20;;;3.20;;
38843;SDS011;24596;48.080;8.362;2024-01-16T03:09:11;8.10;;;2.83;;
38843;SDS011;24596;48.080;8.362;2024-01-16T03:11:37;7.40;;;3.10;;
38843;SDS011;24596;48.080;8.362;2024-01-16T03:14:02;6.63;;;2.93;;
38843;SDS011;24596;48.080;8.362;2024-01-16T03:16:28;7.97;;;3.80;;
38843;SDS011;24596;48.080;8.362;2024-01-16T03:18:54;6.90;;;3.27;;
38843;SDS011;24596;48.080;8.362;2024-01-16T03:21:19;9.37;;;3.80;;
38843;SDS011;24596;48.080;8.362;2024-01-16T03:23:44;8.60;;;3.30;;
38843;SDS011;24596;48.080;8.362;2024-01-16T03:26:15;8.50;;;3.73;;
38843;SDS011;24596;48.080;8.362;2024-01-16T03:28:41;7.65;;;3.47;;
38843;SDS011;24596;48.080;8.362;2024-01-16T03:31:06;5.93;;;3.03;;
38843;SDS011;24596;48.080;8.362;2024-01-16T03:33:32;8.40;;;3.70;;
38843;SDS011;24596;48.080;8.362;2024-01-16T03:35:59;10.00;;;3.53;;
38843;SDS011;24596;48.080;8.362;2024-01-16T03:38:24;9.50;;;3.17;;
38843;SDS011;24596;48.080;8.362;2024-01-16T03:40:49;8.57;;;3.00;;
38843;SDS011;24596;48.080;8.362;2024-01-16T03:43:15;8.40;;;3.60;;
38843;SDS011;24596;48.080;8.362;2024-01-16T03:45:40;10.80;;;3.80;;
38843;SDS011;24596;48.080;8.362;2024-01-16T03:48:05;12.80;;;4.03;;
38843;SDS011;24596;48.080;8.362;2024-01-16T03:50:30;10.07;;;4.60;;
38843;SDS011;24596;48.080;8.362;2024-01-16T03:52:55;6.97;;;3.40;;
38843;SDS011;24596;48.080;8.362;2024-01-16T03:55:21;7.43;;;3.97;;
38843;SDS011;24596;48.080;8.362;2024-01-16T03:57:46;11.37;;;3.83;;
38843;SDS011;24596;48.080;8.362;2024-01-16T04:00:11;9.43;;;4.47;;
38843;SDS011;24596;48.080;8.362;2024-01-16T04:02:37;8.03;;;3.17;;
38843;SDS011;24596;48.080;8.362;2024-01-16T04:05:03;12.00;;;3.43;;
38843;SDS011;24596;48.080;8.362;2024-01-16T04:07:28;9.00;;;3.40;;
38843;SDS011;24596;48.080;8.362;2024-01-16T04:09:54;8.83;;;4.00;;
38843;SDS011;24596;48.080;8.362;2024-01-16T04:12:19;10.60;;;4.07;;
38843;SDS011;24596;48.080;8.362;2024-01-16T04:14:44;16.23;;;8.33;;
38843;SDS011;24596;48.080;8.362;2024-01-16T04:17:09;30.13;;;12.87;;
38843;SDS011;24596;48.080;8.362;2024-01-16T04:19:34;15.47;;;7.73;;
38843;SDS011;24596;48.080;8.362;2024-01-16T04:22:00;13.63;;;5.60;;
38843;SDS011;24596;48.080;8.362;2024-01-16T04:24:26;14.00;;;6.33;;
38843;SDS011;24596;48.080;8.362;2024-01-16T04:26:52;14.77;;;6.10;;
38843;SDS011;24596;48.080;8.362;2024-01-16T04:29:17;16.97;;;7.00;;
38843;SDS011;24596;48.080;8.362;2024-01-16T04:31:42;9.37;;;4.70;;
38843;SDS011;24596;48.080;8.362;2024-01-16T04:34:08;7.53;;;3.33;;
38843;SDS011;24596;48.080;8.362;2024-01-16T04:36:33;8.53;;;3.77;;
38843;SDS011;24596;48.080;8.362;2024-01-16T04:38:58;8.87;;;3.73;;
38843;SDS011;24596;48.080;8.362;2024-01-16T04:41:23;8.70;;;3.70;;
38843;SDS011;24596;48.080;8.362;2024-01-16T04:43:49;10.20;;;4.63;;
38843;SDS011;24596;48.080;8.362;2024-01-16T04:46:15;8.67;;;3.70;;
38843;SDS011;24596;48.080;8.362;2024-01-16T04:48:40;11.60;;;3.70;;
38843;SDS011;24596;48.080;8.362;2024-01-16T04:51:06;10.50;;;3.77;;
38843;SDS011;24596;48.080;8.362;2024-01-16T04:53:32;7.00;;;3.67;;
38843;SDS011;24596;48.080;8.362;2024-01-16T04:55:57;12.10;;;5.13;;
38843;SDS011;24596;48.080;8.362;2024-01-16T04:58:23;10.63;;;5.13;;
38843;SDS011;24596;48.080;8.362;2024-01-16T05:00:48;8.47;;;3.70;;
38843;SDS011;24596;48.080;8.362;2024-01-16T05:03:13;6.50;;;3.50;;
38843;SDS011;24596;48.080;8.362;2024-01-16T05:05:38;9.13;;;4.10;;
38843;SDS011;24596;48.080;8.362;2024-01-16T05:08:04;5.83;;;3.00;;
38843;SDS011;24596;48.080;8.362;2024-01-16T05:10:29;8.03;;;3.40;;
38843;SDS011;24596;48.080;8.362;2024-01-16T05:12:55;8.00;;;3.30;;
38843;SDS011;24596;48.080;8.362;2024-01-16T05:15:21;7.77;;;3.67;;
38843;SDS011;24596;48.080;8.362;2024-01-16T05:17:46;9.70;;;4.60;;
38843;SDS011;24596;48.080;8.362;2024-01-16T05:20:11;9.20;;;4.60;;
38843;SDS011;24596;48.080;8.362;2024-01-16T05:22:36;10.83;;;4.63;;
38843;SDS011;24596;48.080;8.362;2024-01-16T05:25:04;9.90;;;4.70;;
38843;SDS011;24596;48.080;8.362;2024-01-16T05:27:29;12.77;;;4.27;;
38843;SDS011;24596;48.080;8.362;2024-01-16T05:29:54;9.03;;;4.30;;
38843;SDS011;24596;48.080;8.362;2024-01-16T05:32:20;9.57;;;4.80;;
38843;SDS011;24596;48.080;8.362;2024-01-16T05:34:45;10.17;;;4.57;;
38843;SDS011;24596;48.080;8.362;2024-01-16T05:37:10;9.80;;;5.87;;
38843;SDS011;24596;48.080;8.362;2024-01-16T05:39:39;12.40;;;6.07;;
38843;SDS011;24596;48.080;8.362;2024-01-16T05:42:04;13.67;;;7.10;;
38843;SDS011;24596;48.080;8.362;2024-01-16T05:44:30;8.00;;;4.40;;
38843;SDS011;24596;48.080;8.362;2024-01-16T05:46:55;9.93;;;3.60;;
38843;SDS011;24596;48.080;8.362;2024-01-16T05:49:20;7.87;;;3.63;;
38843;SDS011;24596;48.080;8.362;2024-01-16T05:51:46;11.93;;;4.30;;
38843;SDS011;24596;48.080;8.362;2024-01-16T05:54:11;8.77;;;3.77;;
38843;SDS011;24596;48.080;8.362;2024-01-16T05:56:36;8.37;;;3.83;;
38843;SDS011;24596;48.080;8.362;2024-01-16T05:59:02;9.03;;;3.53;;
38843;SDS011;24596;48.080;8.362;2024-01-16T06:01:27;10.50;;;5.17;;
38843;SDS011;24596;48.080;8.362;2024-01-16T06:03:52;12.60;;;6.30;;
38843;SDS011;24596;48.080;8.362;2024-01-16T06:06:17;12.60;;;4.87;;
38843;SDS011;24596;48.080;8.362;2024-01-16T06:08:44;7.97;;;4.00;;
38843;SDS011;24596;48.080;8.362;2024-01-16T06:11:09;9.77;;;3.90;;
38843;SDS011;24596;48.080;8.362;2024-01-16T06:13:35;11.30;;;4.07;;
38843;SDS011;24596;48.080;8.362;2024-01-16T06:16:01;12.00;;;3.80;;
38843;SDS011;24596;48.080;8.362;2024-01-16T06:18:26;12.50;;;4.10;;
38843;SDS011;24596;48.080;8.362;2024-01-16T06:20:51;14.33;;;4.20;;
38843;SDS011;24596;48.080;8.362;2024-01-16T06:23:16;8.80;;;3.83;;
38843;SDS011;24596;48.080;8.362;2024-01-16T06:25:41;8.37;;;3.60;;
38843;SDS011;24596;48.080;8.362;2024-01-16T06:28:07;12.07;;;3.80;;
38843;SDS011;24596;48.080;8.362;2024-01-16T06:30:32;9.43;;;4.23;;
38843;SDS011;24596;48.080;8.362;2024-01-16T06:32:57;11.80;;;4.10;;
38843;SDS011;24596;48.080;8.362;2024-01-16T06:35:22;10.50;;;4.37;;
38843;SDS011;24596;48.080;8.362;2024-01-16T06:37:48;9.13;;;4.80;;
38843;SDS011;24596;48.080;8.362;2024-01-16T06:40:13;14.53;;;6.00;;
38843;SDS011;24596;48.080;8.362;2024-01-16T06:42:39;12.07;;;4.50;;
38843;SDS011;24596;48.080;8.362;2024-01-16T06:45:04;33.67;;;19.90;;
38843;SDS011;24596;48.080;8.362;2024-01-16T06:47:30;35.47;;;18.77;;
38843;SDS011;24596;48.080;8.362;2024-01-16T06:49:55;15.57;;;7.43;;
38843;SDS011;24596;48.080;8.362;2024-01-16T06:52:20;13.30;;;4.97;;
38843;SDS011;24596;48.080;8.362;2024-01-16T06:54:46;15.47;;;7.27;;
38843;SDS011;24596;48.080;8.362;2024-01-16T06:57:11;15.60;;;6.47;;
38843;SDS011;24596;48.080;8.362;2024-01-16T06:59:36;12.13;;;5.50;;
38843;SDS011;24596;48.080;8.362;2024-01-16T07:02:02;11.57;;;7.53;;
38843;SDS011;24596;48.080;8.362;2024-01-16T07:04:28;14.87;;;5.93;;
38843;SDS011;24596;48.080;8.362;2024-01-16T07:06:53;11.20;;;4.50;;
38843;SDS011;24596;48.080;8.362;2024-01-16T07:09:18;12.50;;;4.93;;
38843;SDS011;24596;48.080;8.362;2024-01-16T07:11:45;11.10;;;4.63;;
38843;SDS011;24596;48.080;8.362;2024-01-16T07:14:11;9.97;;;4.30;;
38843;SDS011;24596;48.080;8.362;2024-01-16T07:16:37;11.63;;;4.87;;
38843;SDS011;24596;48.080;8.362;2024-01-16T07:19:02;13.73;;;4.73;;
38843;SDS011;24596;48.080;8.362;2024-01-16T07:21:27;9.63;;;4.40;;
38843;SDS011;24596;48.080;8.362;2024-01-16T07:23:53;12.53;;;5.00;;
38843;SDS011;24596;48.080;8.362;2024-01-16T07:26:18;10.23;;;4.80;;
38843;SDS011;24596;48.080;8.362;2024-01-16T07:28:43;11.93;;;5.73;;
38843;SDS011;24596;48.080;8.362;2024-01-16T07:31:09;12.90;;;5.30;;
38843;SDS011;24596;48.080;8.362;2024-01-16T07:33:34;10.40;;;4.70;;
38843;SDS011;24596;48.080;8.362;2024-01-16T07:36:00;10.40;;;4.77;;
38843;SDS011;24596;48.080;8.362;2024-01-16T07:38:25;9.13;;;4.43;;
38843;SDS011;24596;48.080;8.362;2024-01-16T07:40:50;11.40;;;5.77;;
38843;SDS011;24596;48.080;8.362;2024-01-16T07:43:15;10.23;;;4.07;;
38843;SDS011;24596;48.080;8.362;2024-01-16T07:45:41;11.63;;;5.15;;
38843;SDS011;24596;48.080;8.362;2024-01-16T07:48:06;11.65;;;5.82;;
38843;SDS011;24596;48.080;8.362;2024-01-16T07:50:31;10.45;;;4.70;;
38843;SDS011;24596;48.080;8.362;2024-01-16T07:52:56;11.07;;;6.03;;
38843;SDS011;24596;48.080;8.362;2024-01-16T07:55:22;13.20;;;5.82;;
38843;SDS011;24596;48.080;8.362;2024-01-16T07:57:47;11.32;;;5.50;;
38843;SDS011;24596;48.080;8.362;2024-01-16T08:00:12;10.40;;;3.92;;
38843;SDS011;24596;48.080;8.362;2024-01-16T08:02:37;14.50;;;4.03;;
38843;SDS011;24596;48.080;8.362;2024-01-16T08:05:03;9.50;;;3.88;;
38843;SDS011;24596;48.080;8.362;2024-01-16T08:07:28;8.77;;;3.80;;
38843;SDS011;24596;48.080;8.362;2024-01-16T08:09:54;10.57;;;3.88;;
38843;SDS011;24596;48.080;8.362;2024-01-16T08:12:19;9.25;;;4.10;;
38843;SDS011;24596;48.080;8.362;2024-01-16T08:14:44;13.55;;;4.72;;
38843;SDS011;24596;48.080;8.362;2024-01-16T08:17:09;13.85;;;4.07;;
38843;SDS011;24596;48.080;8.362;2024-01-16T08:19:35;10.15;;;3.88;;
38843;SDS011;24596;48.080;8.362;2024-01-16T08:22:01;10.65;;;4.32;;
38843;SDS011;24596;48.080;8.362;2024-01-16T08:24:27;11.05;;;4.57;;
38843;SDS011;24596;48.080;8.362;2024-01-16T08:26:52;14.57;;;6.75;;
38843;SDS011;24596;48.080;8.362;2024-01-16T08:29:17;16.38;;;6.47;;
38843;SDS011;24596;48.080;8.362;2024-01-16T08:31:43;12.00;;;5.90;;
38843;SDS011;24596;48.080;8.362;2024-01-16T08:34:08;14.40;;;5.43;;
38843;SDS011;24596;48.080;8.362;2024-01-16T08:36:33;12.82;;;5.53;;
38843;SDS011;24596;48.080;8.362;2024-01-16T08:38:58;14.27;;;5.07;;
38843;SDS011;24596;48.080;8.362;2024-01-16T08:41:23;10.88;;;4.25;;
38843;SDS011;24596;48.080;8.362;2024-01-16T08:43:49;14.55;;;5.47;;
38843;SDS011;24596;48.080;8.362;2024-01-16T08:46:14;15.35;;;5.13;;
38843;SDS011;24596;48.080;8.362;2024-01-16T08:48:40;12.60;;;5.10;;
38843;SDS011;24596;48.080;8.362;2024-01-16T08:51:07;10.82;;;4.15;;
38843;SDS011;24596;48.080;8.362;2024-01-16T08:53:32;12.95;;;4.70;;
38843;SDS011;24596;48.080;8.362;2024-01-16T08:55:59;13.73;;;5.10;;
38843;SDS011;24596;48.080;8.362;2024-01-16T08:58:24;13.75;;;5.10;;
38843;SDS011;24596;48.080;8.362;2024-01-16T09:00:49;18.00;;;6.75;;
38843;SDS011;24596;48.080;8.362;2024-01-16T09:03:15;17.02;;;6.47;;
38843;SDS011;24596;48.080;8.362;2024-01-16T09:05:41;22.67;;;8.38;;
38843;SDS011;24596;48.080;8.362;2024-01-16T09:08:08;21.02;;;8.00;;
38843;SDS011;24596;48.080;8.362;2024-01-16T09:10:33;18.55;;;6.95;;
38843;SDS011;24596;48.080;8.362;2024-01-16T09:12:58;21.75;;;7.68;;
38843;SDS011;24596;48.080;8.362;2024-01-16T09:15:24;31.50;;;10.07;;
38843;SDS011;24596;48.080;8.362;2024-01-16T09:17:49;29.40;;;8.82;;
38843;SDS011;24596;48.080;8.362;2024-01-16T09:20:14;26.52;;;8.93;;
38843;SDS011;24596;48.080;8.362;2024-01-16T09:22:40;29.20;;;10.52;;
38843;SDS011;24596;48.080;8.362;2024-01-16T09:25:05;26.33;;;10.35;;
38843;SDS011;24596;48.080;8.362;2024-01-16T09:27:31;21.50;;;8.65;;
38843;SDS011;24596;48.080;8.362;2024-01-16T09:29:56;21.95;;;7.93;;
38843;SDS011;24596;48.080;8.362;2024-01-16T09:32:21;20.67;;;7.35;;
38843;SDS011;24596;48.080;8.362;2024-01-16T09:34:46;17.05;;;7.45;;
38843;SDS011;24596;48.080;8.362;2024-01-16T09:37:11;23.73;;;7.88;;
38843;SDS011;24596;48.080;8.362;2024-01-16T09:39:39;22.42;;;8.55;;
38843;SDS011;24596;48.080;8.362;2024-01-16T09:42:04;25.15;;;9.00;;
38843;SDS011;24596;48.080;8.362;2024-01-16T09:44:30;21.95;;;7.88;;
38843;SDS011;24596;48.080;8.362;2024-01-16T09:46:55;17.48;;;7.15;;
38843;SDS011;24596;48.080;8.362;2024-01-16T09:49:21;19.10;;;7.80;;
38843;SDS011;24596;48.080;8.362;2024-01-16T09:51:46;19.92;;;7.60;;
38843;SDS011;24596;48.080;8.362;2024-01-16T09:54:12;18.42;;;7.18;;
38843;SDS011;24596;48.080;8.362;2024-01-16T09:56:46;20.23;;;8.80;;
38843;SDS011;24596;48.080;8.362;2024-01-16T09:59:15;15.75;;;6.82;;
38843;SDS011;24596;48.080;8.362;2024-01-16T10:01:41;23.08;;;9.25;;
38843;SDS011;24596;48.080;8.362;2024-01-16T10:04:07;18.05;;;8.18;;
38843;SDS011;24596;48.080;8.362;2024-01-16T10:06:33;20.33;;;7.85;;
38843;SDS011;24596;48.080;8.362;2024-01-16T10:08:58;18.48;;;6.93;;
38843;SDS011;24596;48.080;8.362;2024-01-16T10:11:24;28.25;;;8.52;;
38843;SDS011;24596;48.080;8.362;2024-01-16T10:13:49;19.23;;;7.70;;
38843;SDS011;24596;48.080;8.362;2024-01-16T10:16:14;16.92;;;6.78;;
38843;SDS011;24596;48.080;8.362;2024-01-16T10:18:39;15.35;;;5.22;;
38843;SDS011;24596;48.080;8.362;2024-01-16T10:21:05;8.20;;;3.17;;
38843;SDS011;24596;48.080;8.362;2024-01-16T10:23:41;7.93;;;3.22;;
38843;SDS011;24596;48.080;8.362;2024-01-16T10:28:32;5.22;;;1.65;;
38843;SDS011;24596;48.080;8.362;2024-01-16T10:31:08;6.18;;;2.00;;
38843;SDS011;24596;48.080;8.362;2024-01-16T10:33:34;5.53;;;2.15;;
38843;SDS011;24596;48.080;8.362;2024-01-16T10:36:15;6.35;;;2.17;;
38843;SDS011;24596;48.080;8.362;2024-01-16T10:38:42;5.50;;;2.15;;
38843;SDS011;24596;48.080;8.362;2024-01-16T10:41:09;8.25;;;2.22;;
38843;SDS011;24596;48.080;8.362;2024-01-16T10:43:34;5.47;;;2.03;;
38843;SDS011;24596;48.080;8.362;2024-01-16T10:46:09;8.73;;;2.70;;
38843;SDS011;24596;48.080;8.362;2024-01-16T10:48:36;5.95;;;2.25;;
38843;SDS011;24596;48.080;8.362;2024-01-16T10:51:02;7.07;;;2.40;;
38843;SDS011;24596;48.080;8.362;2024-01-16T10:53:27;8.43;;;2.88;;
38843;SDS011;24596;48.080;8.362;2024-01-16T10:55:57;7.53;;;2.53;;
38843;SDS011;24596;48.080;8.362;2024-01-16T10:58:22;10.55;;;3.13;;
38843;SDS011;24596;48.080;8.362;2024-01-16T11:00:49;8.27;;;2.78;;
38843;SDS011;24596;48.080;8.362;2024-01-16T11:03:18;8.00;;;3.00;;
38843;SDS011;24596;48.080;8.362;2024-01-16T11:05:44;8.32;;;3.33;;
38843;SDS011;24596;48.080;8.362;2024-01-16T11:08:09;10.40;;;3.63;;
38843;SDS011;24596;48.080;8.362;2024-01-16T11:10:34;7.53;;;3.10;;
38843;SDS011;24596;48.080;8.362;2024-01-16T11:13:00;8.20;;;3.65;;
38843;SDS011;24596;48.080;8.362;2024-01-16T11:15:26;8.75;;;3.45;;
38843;SDS011;24596;48.080;8.362;2024-01-16T11:17:53;10.65;;;3.33;;
38843;SDS011;24596;48.080;8.362;2024-01-16T11:20:19;10.43;;;3.53;;
38843;SDS011;24596;48.080;8.362;2024-01-16T11:22:45;8.77;;;3.70;;
38843;SDS011;24596;48.080;8.362;2024-01-16T11:25:10;9.38;;;3.53;;
38843;SDS011;24596;48.080;8.362;2024-01-16T11:27:40;9.32;;;3.70;;
38843;SDS011;24596;48.080;8.362;2024-01-16T11:30:06;9.02;;;3.55;;
38843;SDS011;24596;48.080;8.362;2024-01-16T11:32:41;9.70;;;4.10;;
38843;SDS011;24596;48.080;8.362;2024-01-16T11:35:10;7.70;;;3.45;;
38843;SDS011;24596;48.080;8.362;2024-01-16T11:37:36;7.13;;;3.30;;
38843;SDS011;24596;48.080;8.362;2024-01-16T11:42:41;7.97;;;2.75;;
38843;SDS011;24596;48.080;8.362;2024-01-16T11:45:08;7.13;;;2.30;;
38843;SDS011;24596;48.080;8.362;2024-01-16T11:47:33;5.95;;;2.40;;
38843;SDS011;24596;48.080;8.362;2024-01-16T11:50:11;6.38;;;2.50;;
38843;SDS011;24596;48.080;8.362;2024-01-16T12:01:18;5.47;;;1.77;;
38843;SDS011;24596;48.080;8.362;2024-01-16T12:03:44;6.35;;;2.67;;
38843;SDS011;24596;48.080;8.362;2024-01-16T12:06:10;6.00;;;2.50;;
38843;SDS011;24596;48.080;8.362;2024-01-16T12:08:35;4.85;;;1.73;;
38843;SDS011;24596;48.080;8.362;2024-01-16T12:11:02;6.38;;;2.25;;
38843;SDS011;24596;48.080;8.362;2024-01-16T12:13:27;5.72;;;1.80;;
38843;SDS011;24596;48.080;8.362;2024-01-16T12:15:59;5.45;;;2.05;;
38843;SDS011;24596;48.080;8.362;2024-01-16T12:18:25;5.45;;;2.00;;
38843;SDS011;24596;48.080;8.362;2024-01-16T12:20:51;4.28;;;1.73;;
38843;SDS011;24596;48.080;8.362;2024-01-16T12:23:16;4.47;;;1.70;;
38843;SDS011;24596;48.080;8.362;2024-01-16T12:25:41;4.65;;;1.55;;
38843;SDS011;24596;48.080;8.362;2024-01-16T12:28:07;3.63;;;1.65;;
38843;SDS011;24596;48.080;8.362;2024-01-16T12:30:36;5.00;;;1.40;;
38843;SDS011;24596;48.080;8.362;2024-01-16T12:33:08;3.25;;;1.10;;
38843;SDS011;24596;48.080;8.362;2024-01-16T12:35:42;4.70;;;1.55;;
38843;SDS011;24596;48.080;8.362;2024-01-16T12:38:10;5.10;;;1.52;;
38843;SDS011;24596;48.080;8.362;2024-01-16T12:40:35;4.25;;;1.60;;
38843;SDS011;24596;48.080;8.362;2024-01-16T12:43:04;4.65;;;1.70;;
38843;SDS011;24596;48.080;8.362;2024-01-16T12:45:30;4.50;;;1.50;;
38843;SDS011;24596;48.080;8.362;2024-01-16T12:47:57;5.35;;;1.83;;
38843;SDS011;24596;48.080;8.362;2024-01-16T12:50:26;6.43;;;2.15;;
38843;SDS011;24596;48.080;8.362;2024-01-16T12:53:04;4.55;;;1.70;;
38843;SDS011;24596;48.080;8.362;2024-01-16T12:55:48;9.30;;;4.53;;
38843;SDS011;24596;48.080;8.362;2024-01-16T12:58:21;10.10;;;4.90;;
38843;SDS011;24596;48.080;8.362;2024-01-16T13:00:49;10.02;;;5.47;;
38843;SDS011;24596;48.080;8.362;2024-01-16T13:03:24;9.82;;;4.93;;
38843;SDS011;24596;48.080;8.362;2024-01-16T13:05:58;12.07;;;5.28;;
38843;SDS011;24596;48.080;8.362;2024-01-16T13:08:23;10.45;;;5.28;;
38843;SDS011;24596;48.080;8.362;2024-01-16T13:11:07;9.70;;;5.05;;
38843;SDS011;24596;48.080;8.362;2024-01-16T13:13:32;8.45;;;4.53;;
38843;SDS011;24596;48.080;8.362;2024-01-16T13:15:58;12.18;;;5.32;;
38843;SDS011;24596;48.080;8.362;2024-01-16T13:18:24;10.27;;;5.28;;
38843;SDS011;24596;48.080;8.362;2024-01-16T13:20:50;11.20;;;5.25;;
38843;SDS011;24596;48.080;8.362;2024-01-16T13:23:16;10.65;;;5.15;;
38843;SDS011;24596;48.080;8.362;2024-01-16T13:25:42;10.15;;;5.28;;
38843;SDS011;24596;48.080;8.362;2024-01-16T13:28:08;11.30;;;5.50;;
38843;SDS011;24596;48.080;8.362;2024-01-16T13:30:33;11.98;;;5.03;;
38843;SDS011;24596;48.080;8.362;2024-01-16T13:32:58;11.00;;;5.75;;
38843;SDS011;24596;48.080;8.362;2024-01-16T13:35:24;12.88;;;5.85;;
38843;SDS011;24596;48.080;8.362;2024-01-16T13:37:49;12.18;;;6.03;;
38843;SDS011;24596;48.080;8.362;2024-01-16T13:40:15;10.85;;;5.32;;
38843;SDS011;24596;48.080;8.362;2024-01-16T13:42:43;10.75;;;5.85;;
38843;SDS011;24596;48.080;8.362;2024-01-16T13:45:08;10.68;;;5.45;;
38843;SDS011;24596;48.080;8.362;2024-01-16T13:47:34;11.73;;;5.57;;
38843;SDS011;24596;48.080;8.362;2024-01-16T13:50:04;13.65;;;6.72;;
38843;SDS011;24596;48.080;8.362;2024-01-16T13:52:29;10.57;;;5.75;;
38843;SDS011;24596;48.080;8.362;2024-01-16T13:54:54;11.02;;;6.07;;
38843;SDS011;24596;48.080;8.362;2024-01-16T13:57:20;10.95;;;5.78;;
38843;SDS011;24596;48.080;8.362;2024-01-16T13:59:45;10.35;;;6.07;;
38843;SDS011;24596;48.080;8.362;2024-01-16T14:02:11;12.85;;;6.40;;
38843;SDS011;24596;48.080;8.362;2024-01-16T14:04:36;12.02;;;5.72;;
38843;SDS011;24596;48.080;8.362;2024-01-16T14:07:01;12.73;;;6.97;;
38843;SDS011;24596;48.080;8.362;2024-01-16T14:09:28;13.73;;;8.05;;
38843;SDS011;24596;48.080;8.362;2024-01-16T14:11:53;13.15;;;7.13;;
38843;SDS011;24596;48.080;8.362;2024-01-16T14:14:18;12.07;;;7.30;;
38843;SDS011;24596;48.080;8.362;2024-01-16T14:16:43;12.65;;;7.10;;
38843;SDS011;24596;48.080;8.362;2024-01-16T14:19:09;11.25;;;5.88;;
38843;SDS011;24596;48.080;8.362;2024-01-16T14:21:34;10.55;;;5.97;;
38843;SDS011;24596;48.080;8.362;2024-01-16T14:24:01;10.80;;;5.80;;
38843;SDS011;24596;48.080;8.362;2024-01-16T14:26:26;10.25;;;5.97;;
38843;SDS011;24596;48.080;8.362;2024-01-16T14:28:52;11.75;;;6.57;;
38843;SDS011;24596;48.080;8.362;2024-01-16T14:31:17;13.77;;;7.20;;
38843;SDS011;24596;48.080;8.362;2024-01-16T14:33:42;12.82;;;6.63;;
38843;SDS011;24596;48.080;8.362;2024-01-16T14:36:07;12.95;;;6.97;;
38843;SDS011;24596;48.080;8.362;2024-01-16T14:38:33;10.75;;;6.18;;
38843;SDS011;24596;48.080;8.362;2024-01-16T14:40:58;12.38;;;6.65;;
38843;SDS011;24596;48.080;8.362;2024-01-16T14:43:23;17.27;;;9.45;;
38843;SDS011;24596;48.080;8.362;2024-01-16T14:45:48;15.05;;;7.55;;
38843;SDS011;24596;48.080;8.362;2024-01-16T14:48:15;16.02;;;8.95;;